createdAt,value
2022-07-29T00:01:20.442Z,7.20
2022-07-29T00:03:47.923Z,8.57
2022-07-29T00:06:15.803Z,10.57
2022-07-29T00:08:43.012Z,7.75
2022-07-29T00:11:10.273Z,7.57
2022-07-29T00:13:37.467Z,6.13
2022-07-29T00:16:05.322Z,9.20
2022-07-29T00:18:33.423Z,9.50
2022-07-29T00:21:00.764Z,7.60
2022-07-29T00:23:27.967Z,8.48
2022-07-29T00:25:55.116Z,8.32
2022-07-29T00:28:22.322Z,6.65
2022-07-29T00:30:49.306Z,6.70
2022-07-29T00:33:16.306Z,6.70
2022-07-29T00:35:45.972Z,6.30
2022-07-29T00:38:18.496Z,4.75
2022-07-29T00:40:45.989Z,5.78
2022-07-29T00:43:14.717Z,5.57
2022-07-29T00:45:42.524Z,5.03
2022-07-29T00:48:09.854Z,5.93
2022-07-29T00:50:37.840Z,6.00
2022-07-29T00:53:06.769Z,6.00
2022-07-29T00:55:33.854Z,6.85
2022-07-29T00:58:01.386Z,5.82
2022-07-29T01:00:30.322Z,5.63
2022-07-29T01:02:57.592Z,5.45
2022-07-29T01:05:50.553Z,4.05
2022-07-29T01:08:16.352Z,4.18
2022-07-29T01:10:46.782Z,4.53
2022-07-29T01:13:15.527Z,5.20
2022-07-29T01:15:52.614Z,4.47
2022-07-29T01:18:30.261Z,4.97
2022-07-29T01:21:15.528Z,5.88
2022-07-29T01:24:05.300Z,4.95
2022-07-29T01:26:55.265Z,4.85
2022-07-29T01:29:42.449Z,6.03
2022-07-29T01:32:27.667Z,5.03
2022-07-29T01:35:29.717Z,6.65
2022-07-29T01:38:10.607Z,4.85
2022-07-29T01:40:42.160Z,6.63
2022-07-29T01:43:19.712Z,7.03
2022-07-29T01:45:58.793Z,10.43
2022-07-29T01:48:41.225Z,9.00
2022-07-29T01:51:33.986Z,8.43
2022-07-29T01:54:00.983Z,7.05
2022-07-29T01:56:32.026Z,7.55
2022-07-29T01:59:00.440Z,9.55
2022-07-29T02:01:30.756Z,10.88
2022-07-29T02:04:00.257Z,8.02
2022-07-29T02:06:28.660Z,9.52
2022-07-29T02:08:59.080Z,9.30
2022-07-29T02:11:32.253Z,5.90
2022-07-29T02:14:01.774Z,5.32
2022-07-29T02:16:32.959Z,3.72
2022-07-29T02:19:03.148Z,5.32
2022-07-29T02:21:33.089Z,5.03
2022-07-29T02:24:02.389Z,4.72
2022-07-29T02:26:31.404Z,5.05
2022-07-29T02:29:00.075Z,4.60
2022-07-29T02:31:33.517Z,4.25
2022-07-29T02:34:04.366Z,3.05
2022-07-29T02:36:32.685Z,4.07
2022-07-29T02:39:01.747Z,4.93
2022-07-29T02:41:38.269Z,3.22
2022-07-29T02:44:12.267Z,3.85
2022-07-29T02:46:50.053Z,5.00
2022-07-29T02:49:29.764Z,5.68
2022-07-29T02:52:02.488Z,3.45
2022-07-29T02:54:50.120Z,4.65
2022-07-29T02:57:54.054Z,3.95
2022-07-29T03:00:29.811Z,3.60
2022-07-29T03:03:00.877Z,6.63
2022-07-29T03:05:28.977Z,4.43
2022-07-29T03:08:03.829Z,5.30
2022-07-29T03:10:35.003Z,6.22
2022-07-29T03:13:03.114Z,5.47
2022-07-29T03:15:30.853Z,3.67
2022-07-29T03:17:59.081Z,6.53
2022-07-29T03:20:30.710Z,4.90
2022-07-29T03:22:57.763Z,4.82
2022-07-29T03:25:24.818Z,6.45
2022-07-29T03:27:52.438Z,3.55
2022-07-29T03:30:22.290Z,4.05
2022-07-29T03:32:52.011Z,4.47
2022-07-29T03:35:23.562Z,4.43
2022-07-29T03:37:51.513Z,4.78
2022-07-29T03:40:32.096Z,5.38
2022-07-29T03:43:01.213Z,6.25
2022-07-29T03:45:31.371Z,3.95
2022-07-29T03:48:03.071Z,3.90
2022-07-29T03:50:31.633Z,4.75
2022-07-29T03:52:59.287Z,4.72
2022-07-29T03:55:29.556Z,3.88
2022-07-29T03:57:58.649Z,5.53
2022-07-29T04:00:27.719Z,4.78
2022-07-29T04:02:55.508Z,6.00
2022-07-29T04:05:22.899Z,6.28
2022-07-29T04:07:50.294Z,5.75
2022-07-29T04:10:30.411Z,5.80
2022-07-29T04:13:00.109Z,6.47
2022-07-29T04:15:31.004Z,6.05
2022-07-29T04:17:58.534Z,4.75
2022-07-29T04:20:25.747Z,5.28
2022-07-29T04:22:52.757Z,5.20
2022-07-29T04:25:19.794Z,4.45
2022-07-29T04:28:01.881Z,5.60
2022-07-29T04:30:30.123Z,3.80
2022-07-29T04:32:57.434Z,7.10
2022-07-29T04:35:24.516Z,6.20
2022-07-29T04:37:51.712Z,11.85
2022-07-29T04:40:18.899Z,3.90
2022-07-29T04:42:46.731Z,4.20
2022-07-29T04:45:16.185Z,7.90
2022-07-29T04:47:43.382Z,5.93
2022-07-29T04:50:11.278Z,5.90
2022-07-29T04:52:38.596Z,3.90
2022-07-29T04:55:06.422Z,3.63
2022-07-29T04:57:33.551Z,4.47
2022-07-29T05:00:00.683Z,4.10
2022-07-29T05:02:27.819Z,5.97
2022-07-29T05:04:54.933Z,6.32
2022-07-29T05:07:22.027Z,5.65
2022-07-29T05:09:49.274Z,4.72
2022-07-29T05:12:16.444Z,3.60
2022-07-29T05:14:43.500Z,5.60
2022-07-29T05:17:10.753Z,5.15
2022-07-29T05:19:39.438Z,5.80
2022-07-29T05:22:07.341Z,7.03
2022-07-29T05:24:34.376Z,5.03
2022-07-29T05:27:01.464Z,6.07
2022-07-29T05:29:44.993Z,6.97
2022-07-29T05:32:13.722Z,5.72
2022-07-29T05:34:51.439Z,6.75
2022-07-29T05:37:21.919Z,6.75
2022-07-29T05:39:56.854Z,5.82
2022-07-29T05:42:25.590Z,7.63
2022-07-29T05:44:53.549Z,6.13
2022-07-29T05:47:23.260Z,6.30
2022-07-29T05:49:51.398Z,9.00
2022-07-29T05:52:18.844Z,6.30
2022-07-29T05:54:46.008Z,8.45
2022-07-29T05:57:17.950Z,9.25
2022-07-29T05:59:45.744Z,8.85
2022-07-29T06:02:12.847Z,8.02
2022-07-29T06:04:39.881Z,8.93
2022-07-29T06:07:07.170Z,8.73
2022-07-29T06:09:36.352Z,11.02
2022-07-29T06:12:04.230Z,10.00
2022-07-29T06:14:31.383Z,11.60
2022-07-29T06:16:58.391Z,9.90
2022-07-29T06:19:25.475Z,14.18
2022-07-29T06:21:52.804Z,9.32
2022-07-29T06:24:20.333Z,8.93
2022-07-29T06:26:47.465Z,9.52
2022-07-29T06:29:14.511Z,7.65
2022-07-29T06:31:41.765Z,8.10
2022-07-29T06:34:08.828Z,8.13
2022-07-29T06:36:37.902Z,8.48
2022-07-29T06:39:09.954Z,21.80
2022-07-29T06:41:38.827Z,8.27
2022-07-29T06:44:10.285Z,5.53
2022-07-29T06:46:37.584Z,7.95
2022-07-29T06:49:05.450Z,5.70
2022-07-29T06:51:33.187Z,5.88
2022-07-29T06:54:02.586Z,5.93
2022-07-29T06:56:39.478Z,7.10
2022-07-29T06:59:12.185Z,7.45
2022-07-29T07:01:43.994Z,9.10
2022-07-29T07:04:12.552Z,3.45
2022-07-29T07:06:39.990Z,5.25
2022-07-29T07:09:07.103Z,6.00
2022-07-29T07:11:34.862Z,5.10
2022-07-29T07:14:03.708Z,4.55
2022-07-29T07:16:31.971Z,5.30
2022-07-29T07:18:59.130Z,4.57
2022-07-29T07:21:30.254Z,6.43
2022-07-29T07:23:58.078Z,4.80
2022-07-29T07:26:25.172Z,5.93
2022-07-29T07:28:52.244Z,5.57
2022-07-29T07:31:19.456Z,5.50
2022-07-29T07:33:46.615Z,5.85
2022-07-29T07:36:13.641Z,4.55
2022-07-29T07:38:40.776Z,7.28
2022-07-29T07:41:08.569Z,5.55
2022-07-29T07:43:35.659Z,4.55
2022-07-29T07:46:02.750Z,8.50
2022-07-29T07:48:29.825Z,5.85
2022-07-29T07:50:57.035Z,6.78
2022-07-29T07:53:24.160Z,6.70
2022-07-29T07:56:10.013Z,6.00
2022-07-29T07:58:38.277Z,7.03
2022-07-29T08:01:06.533Z,5.10
2022-07-29T08:03:34.360Z,4.38
2022-07-29T08:06:01.795Z,5.68
2022-07-29T08:08:28.861Z,4.35
2022-07-29T08:11:00.629Z,4.28
2022-07-29T08:13:31.254Z,4.28
2022-07-29T08:15:59.479Z,4.97
2022-07-29T08:18:31.688Z,5.40
2022-07-29T08:20:59.613Z,4.47
2022-07-29T08:23:32.866Z,4.38
2022-07-29T08:26:13.901Z,4.35
2022-07-29T08:28:45.706Z,7.75
2022-07-29T08:31:14.186Z,4.95
2022-07-29T08:33:41.322Z,4.75
2022-07-29T08:36:08.538Z,5.82
2022-07-29T08:38:35.840Z,7.72
2022-07-29T08:41:03.062Z,4.82
2022-07-29T08:43:30.437Z,4.65
2022-07-29T08:45:57.788Z,4.55
2022-07-29T08:48:28.423Z,6.72
2022-07-29T08:50:59.203Z,4.75
2022-07-29T08:53:29.152Z,5.85
2022-07-29T08:55:57.073Z,5.78
2022-07-29T08:58:25.700Z,5.30
2022-07-29T09:00:56.058Z,5.82
2022-07-29T09:03:32.576Z,5.78
2022-07-29T09:06:00.635Z,10.23
2022-07-29T09:08:28.291Z,7.05
2022-07-29T09:11:00.939Z,7.32
2022-07-29T09:13:31.171Z,7.70
2022-07-29T09:15:58.316Z,5.78
2022-07-29T09:18:46.018Z,6.28
2022-07-29T09:21:34.493Z,7.30
2022-07-29T09:24:04.272Z,7.18
2022-07-29T09:26:38.385Z,9.48
2022-07-29T09:29:15.963Z,8.10
2022-07-29T09:31:53.465Z,7.03
2022-07-29T09:34:25.715Z,9.98
2022-07-29T09:36:54.396Z,6.43
2022-07-29T09:39:36.994Z,7.57
2022-07-29T09:42:06.990Z,6.38
2022-07-29T09:44:46.423Z,8.00
2022-07-29T09:47:14.080Z,7.00
2022-07-29T09:50:01.802Z,7.80
2022-07-29T09:52:30.039Z,6.50
2022-07-29T09:55:17.839Z,6.50
2022-07-29T09:57:47.005Z,11.90
2022-07-29T10:00:16.973Z,7.63
2022-07-29T10:02:48.664Z,8.98
2022-07-29T10:05:36.276Z,6.97
2022-07-29T10:08:05.955Z,6.78
2022-07-29T10:10:34.928Z,9.15
2022-07-29T10:13:08.068Z,5.45
2022-07-29T10:15:44.764Z,6.60
2022-07-29T10:18:13.541Z,7.15
2022-07-29T10:20:41.161Z,6.60
2022-07-29T10:23:10.825Z,7.22
2022-07-29T10:25:38.144Z,5.32
2022-07-29T10:28:07.951Z,7.07
2022-07-29T10:30:35.402Z,6.07
2022-07-29T10:33:42.294Z,8.48
2022-07-29T10:36:21.399Z,8.88
2022-07-29T10:39:16.362Z,10.13
2022-07-29T10:42:04.788Z,7.53
2022-07-29T10:44:34.281Z,10.13
2022-07-29T10:47:02.140Z,7.70
2022-07-29T10:49:31.155Z,8.38
2022-07-29T10:52:06.362Z,7.85
2022-07-29T10:54:36.637Z,10.80
2022-07-29T10:57:54.559Z,10.35
2022-07-29T11:00:16.820Z,8.15
2022-07-29T11:02:50.167Z,7.25
2022-07-29T11:05:22.131Z,13.00
2022-07-29T11:08:19.559Z,10.38
2022-07-29T11:10:47.480Z,10.35
2022-07-29T11:13:44.803Z,7.95
2022-07-29T11:16:16.202Z,7.05
2022-07-29T11:19:11.494Z,12.15
2022-07-29T11:24:36.897Z,9.13
2022-07-29T11:27:08.497Z,12.88
2022-07-29T11:29:57.279Z,8.80
2022-07-29T11:32:36.035Z,8.15
2022-07-29T11:35:37.568Z,9.60
2022-07-29T11:38:32.087Z,9.27
2022-07-29T11:41:32.712Z,9.35
2022-07-29T11:44:01.434Z,8.88
2022-07-29T11:46:49.102Z,7.72
2022-07-29T11:49:32.695Z,10.80
2022-07-29T11:52:02.629Z,8.30
2022-07-29T11:54:57.043Z,11.60
2022-07-29T11:57:22.573Z,9.40
2022-07-29T11:59:50.820Z,8.10
2022-07-29T12:02:37.304Z,10.55
2022-07-29T12:05:10.697Z,12.02
2022-07-29T12:07:46.041Z,8.70
2022-07-29T12:10:29.584Z,10.90
2022-07-29T12:12:56.758Z,10.13
2022-07-29T12:15:39.150Z,8.95
2022-07-29T12:18:14.181Z,9.57
2022-07-29T12:20:42.737Z,9.10
2022-07-29T12:23:16.163Z,8.15
2022-07-29T12:25:44.896Z,9.38
2022-07-29T12:28:26.825Z,9.63
2022-07-29T12:30:54.644Z,8.32
2022-07-29T12:33:28.400Z,10.38
2022-07-29T12:36:06.993Z,12.55
2022-07-29T12:38:38.166Z,8.50
2022-07-29T12:41:05.444Z,8.80
2022-07-29T12:43:33.972Z,9.15
2022-07-29T12:46:14.329Z,11.40
2022-07-29T12:48:43.793Z,9.43
2022-07-29T12:51:13.237Z,10.48
2022-07-29T12:54:02.224Z,8.00
2022-07-29T12:56:42.313Z,7.85
2022-07-29T12:59:21.656Z,6.80
2022-07-29T13:01:52.191Z,8.20
2022-07-29T13:04:31.902Z,7.30
2022-07-29T13:07:01.621Z,7.97
2022-07-29T13:09:38.183Z,11.75
2022-07-29T13:12:13.575Z,12.68
2022-07-29T13:14:48.638Z,8.57
2022-07-29T13:17:24.185Z,8.32
2022-07-29T13:19:53.333Z,10.98
2022-07-29T13:22:22.307Z,9.60
2022-07-29T13:25:15.465Z,8.13
2022-07-29T13:27:42.678Z,10.70
2022-07-29T13:30:10.755Z,8.77
2022-07-29T13:32:38.641Z,8.32
2022-07-29T13:35:08.217Z,8.43
2022-07-29T13:37:39.242Z,9.30
2022-07-29T13:40:08.974Z,9.13
2022-07-29T13:42:36.599Z,8.18
2022-07-29T13:45:05.445Z,10.15
2022-07-29T13:47:33.390Z,9.57
2022-07-29T13:50:02.225Z,10.70
2022-07-29T13:52:29.679Z,8.52
2022-07-29T13:54:56.915Z,7.32
2022-07-29T13:57:24.044Z,11.27
2022-07-29T13:59:54.416Z,8.05
2022-07-29T14:02:25.609Z,8.07
2022-07-29T14:04:54.835Z,7.15
2022-07-29T14:07:23.480Z,10.20
2022-07-29T14:09:51.178Z,8.75
2022-07-29T14:12:18.547Z,9.30
2022-07-29T14:14:47.228Z,8.10
2022-07-29T14:17:15.045Z,9.13
2022-07-29T14:19:42.830Z,8.60
2022-07-29T14:22:10.911Z,8.77
2022-07-29T14:24:38.473Z,8.45
2022-07-29T14:27:06.725Z,8.30
2022-07-29T14:29:37.025Z,13.05
2022-07-29T14:32:08.211Z,8.73
2022-07-29T14:34:39.854Z,8.95
2022-07-29T14:37:07.801Z,10.20
2022-07-29T14:39:42.296Z,8.65
2022-07-29T14:42:11.680Z,8.07
2022-07-29T14:44:44.665Z,7.80
2022-07-29T14:47:11.791Z,8.70
2022-07-29T14:49:38.819Z,8.73
2022-07-29T14:52:06.220Z,8.55
2022-07-29T14:54:33.340Z,7.32
2022-07-29T14:57:00.458Z,9.10
2022-07-29T14:59:27.715Z,8.38
2022-07-29T15:01:54.823Z,9.70
2022-07-29T15:04:23.738Z,9.02
2022-07-29T15:06:51.205Z,8.60
2022-07-29T15:09:18.937Z,8.98
2022-07-29T15:11:48.679Z,8.70
2022-07-29T15:14:15.742Z,7.82
2022-07-29T15:16:43.753Z,7.70
2022-07-29T15:19:11.588Z,8.80
2022-07-29T15:21:41.709Z,9.23
2022-07-29T15:24:17.427Z,9.30
2022-07-29T15:26:47.534Z,7.97
2022-07-29T15:29:15.358Z,7.85
2022-07-29T15:31:42.825Z,7.28
2022-07-29T15:34:10.023Z,9.13
2022-07-29T15:36:53.489Z,7.28
2022-07-29T15:39:21.915Z,5.55
2022-07-29T15:41:49.175Z,10.25
2022-07-29T15:44:16.238Z,6.22
2022-07-29T15:47:02.511Z,6.03
2022-07-29T15:49:46.606Z,13.02
2022-07-29T15:52:25.731Z,12.82
2022-07-29T15:54:55.047Z,9.70
2022-07-29T15:57:22.810Z,12.20
2022-07-29T15:59:50.214Z,13.02
2022-07-29T16:02:17.744Z,6.90
2022-07-29T16:04:44.897Z,11.15
2022-07-29T16:07:12.390Z,12.25
2022-07-29T16:09:41.892Z,12.80
2022-07-29T16:12:11.098Z,14.18
2022-07-29T16:14:45.369Z,11.20
2022-07-29T16:17:14.455Z,14.68
2022-07-29T16:19:43.550Z,15.77
2022-07-29T16:22:11.083Z,12.90
2022-07-29T16:24:39.334Z,14.63
2022-07-29T16:27:07.021Z,15.48
2022-07-29T16:29:34.269Z,14.35
2022-07-29T16:32:01.875Z,12.00
2022-07-29T16:34:29.642Z,11.27
2022-07-29T16:36:56.732Z,7.63
2022-07-29T16:39:23.808Z,10.55
2022-07-29T16:41:50.944Z,10.15
2022-07-29T16:44:17.989Z,12.73
2022-07-29T16:46:45.735Z,14.23
2022-07-29T16:49:19.084Z,13.85
2022-07-29T16:51:47.910Z,8.70
2022-07-29T16:54:15.469Z,8.82
2022-07-29T16:56:42.588Z,8.85
2022-07-29T16:59:09.575Z,10.52
2022-07-29T17:01:36.618Z,9.63
2022-07-29T17:04:06.916Z,8.18
2022-07-29T17:06:38.847Z,9.50
2022-07-29T17:09:07.789Z,8.63
2022-07-29T17:11:51.579Z,8.65
2022-07-29T17:14:28.107Z,9.10
2022-07-29T17:17:02.644Z,8.45
2022-07-29T17:19:32.464Z,7.97
2022-07-29T17:22:10.457Z,6.53
2022-07-29T17:24:40.997Z,7.13
2022-07-29T17:27:09.946Z,7.13
2022-07-29T17:29:40.219Z,6.38
2022-07-29T17:32:09.043Z,8.10
2022-07-29T17:34:40.638Z,6.30
2022-07-29T17:37:09.514Z,6.90
2022-07-29T17:39:37.616Z,5.85
2022-07-29T17:42:05.570Z,6.63
2022-07-29T17:44:36.249Z,5.88
2022-07-29T17:47:04.936Z,8.52
2022-07-29T17:49:32.632Z,7.95
2022-07-29T17:52:01.170Z,5.88
2022-07-29T17:54:28.545Z,8.52
2022-07-29T17:56:55.995Z,8.13
2022-07-29T17:59:23.293Z,7.68
2022-07-29T18:01:50.456Z,8.50
2022-07-29T18:04:20.967Z,8.13
2022-07-29T18:06:48.227Z,7.72
2022-07-29T18:09:15.259Z,14.27
2022-07-29T18:11:44.433Z,8.35
2022-07-29T18:14:13.493Z,10.52
2022-07-29T18:16:41.126Z,8.50
2022-07-29T18:19:08.258Z,6.80
2022-07-29T18:21:42.581Z,7.38
2022-07-29T18:24:18.439Z,10.05
2022-07-29T18:26:45.455Z,8.55
2022-07-29T18:29:12.433Z,9.68
2022-07-29T18:31:43.559Z,9.88
2022-07-29T18:34:10.664Z,8.70
2022-07-29T18:36:37.673Z,8.25
2022-07-29T18:39:04.728Z,8.65
2022-07-29T18:41:31.923Z,8.95
2022-07-29T18:43:59.121Z,8.93
2022-07-29T18:46:26.282Z,9.27
2022-07-29T18:48:53.483Z,7.72
2022-07-29T18:51:22.512Z,6.97
2022-07-29T18:53:49.490Z,6.38
2022-07-29T18:56:16.594Z,8.30
2022-07-29T18:58:43.663Z,6.75
2022-07-29T19:01:16.107Z,8.30
2022-07-29T19:03:43.999Z,6.60
2022-07-29T19:06:11.035Z,5.72
2022-07-29T19:08:38.093Z,5.82
2022-07-29T19:11:05.206Z,5.63
2022-07-29T19:13:33.159Z,6.13
2022-07-29T19:16:00.259Z,5.75
2022-07-29T19:18:27.372Z,7.38
2022-07-29T19:20:54.412Z,6.05
2022-07-29T19:23:21.759Z,5.70
2022-07-29T19:25:53.405Z,6.97
2022-07-29T19:28:21.971Z,7.00
2022-07-29T19:30:49.807Z,6.93
2022-07-29T19:33:19.136Z,8.38
2022-07-29T19:35:49.312Z,6.72
2022-07-29T19:38:18.655Z,6.63
2022-07-29T19:40:45.847Z,5.65
2022-07-29T19:43:51.687Z,5.82
2022-07-29T19:46:00.180Z,6.38
2022-07-29T19:48:27.276Z,6.35
2022-07-29T19:50:54.321Z,5.18
2022-07-29T19:53:21.364Z,7.00
2022-07-29T19:55:48.441Z,5.82
2022-07-29T19:58:15.591Z,5.15
2022-07-29T20:00:43.541Z,6.10
2022-07-29T20:03:10.863Z,6.28
2022-07-29T20:05:37.998Z,5.00
2022-07-29T20:08:06.241Z,7.03
2022-07-29T20:10:34.206Z,6.05
2022-07-29T20:13:01.255Z,6.18
2022-07-29T20:15:28.281Z,7.68
2022-07-29T20:17:57.301Z,6.63
2022-07-29T20:20:25.255Z,5.55
2022-07-29T20:22:53.305Z,6.38
2022-07-29T20:25:20.436Z,5.68
2022-07-29T20:27:50.450Z,6.18
2022-07-29T20:30:17.924Z,6.50
2022-07-29T20:32:45.730Z,5.72
2022-07-29T20:35:13.425Z,8.27
2022-07-29T20:37:51.975Z,5.45
2022-07-29T20:40:23.004Z,6.32
2022-07-29T20:42:50.261Z,6.43
2022-07-29T20:45:17.508Z,5.57
2022-07-29T20:47:44.536Z,6.22
2022-07-29T20:50:11.696Z,6.30
2022-07-29T20:52:42.498Z,5.90
2022-07-29T20:55:10.384Z,9.75
2022-07-29T20:57:39.184Z,6.60
2022-07-29T21:00:07.908Z,6.65
2022-07-29T21:02:35.084Z,5.97
2022-07-29T21:05:02.197Z,6.80
2022-07-29T21:07:29.386Z,7.18
2022-07-29T21:09:56.536Z,7.38
2022-07-29T21:12:23.992Z,6.05
2022-07-29T21:14:52.075Z,6.20
2022-07-29T21:17:22.651Z,8.27
2022-07-29T21:19:55.306Z,7.97
2022-07-29T21:22:22.573Z,9.35
2022-07-29T21:24:49.839Z,8.60
2022-07-29T21:27:39.238Z,8.55
2022-07-29T21:30:09.836Z,7.63
2022-07-29T21:32:37.174Z,11.63
2022-07-29T21:35:18.144Z,8.35
2022-07-29T21:37:52.036Z,8.43
2022-07-29T21:40:19.083Z,9.82
2022-07-29T21:42:46.255Z,9.40
2022-07-29T21:45:13.909Z,8.73
2022-07-29T21:47:41.030Z,8.07
2022-07-29T21:50:08.361Z,8.32
2022-07-29T21:52:35.716Z,9.07
2022-07-29T21:55:04.641Z,8.80
2022-07-29T21:57:31.807Z,10.45
2022-07-29T22:00:02.777Z,8.27
2022-07-29T22:02:39.656Z,13.52
2022-07-29T22:05:06.889Z,11.40
2022-07-29T22:07:56.540Z,11.10
2022-07-29T22:10:21.011Z,9.48
2022-07-29T22:12:54.376Z,12.15
2022-07-29T22:15:21.909Z,9.50
2022-07-29T22:17:49.542Z,9.07
2022-07-29T22:20:16.786Z,10.40
2022-07-29T22:22:43.992Z,10.25
2022-07-29T22:25:11.524Z,10.07
2022-07-29T22:27:39.033Z,10.38
2022-07-29T22:30:07.237Z,10.90
2022-07-29T22:32:34.606Z,9.98
2022-07-29T22:35:01.691Z,10.35
2022-07-29T22:37:29.423Z,10.07
2022-07-29T22:39:56.667Z,10.90
2022-07-29T22:42:23.817Z,11.15
2022-07-29T22:44:50.910Z,11.63
2022-07-29T22:47:39.006Z,9.75
2022-07-29T22:50:15.216Z,10.65
2022-07-29T22:52:42.295Z,9.98
2022-07-29T22:55:10.660Z,12.63
2022-07-29T22:57:37.674Z,11.10
2022-07-29T23:00:06.052Z,10.73
2022-07-29T23:02:33.048Z,9.20
2022-07-29T23:05:00.199Z,11.02
2022-07-29T23:07:27.692Z,12.30
2022-07-29T23:09:54.738Z,10.77
2022-07-29T23:12:22.211Z,11.32
2022-07-29T23:14:49.208Z,12.45
2022-07-29T23:17:16.381Z,14.00
2022-07-29T23:19:43.452Z,12.82
2022-07-29T23:22:11.708Z,12.25
2022-07-29T23:24:38.751Z,11.07
2022-07-29T23:27:07.984Z,10.00
2022-07-29T23:29:36.909Z,11.68
2022-07-29T23:32:04.251Z,12.13
2022-07-29T23:34:31.309Z,11.23
2022-07-29T23:36:58.970Z,12.30
2022-07-29T23:39:26.299Z,12.20
2022-07-29T23:41:53.610Z,12.35
2022-07-29T23:44:20.827Z,18.05
2022-07-29T23:46:47.972Z,12.02
2022-07-29T23:49:15.092Z,15.13
2022-07-29T23:51:43.991Z,13.10
2022-07-29T23:54:11.024Z,13.15
2022-07-29T23:56:38.062Z,14.30
2022-07-29T23:59:05.956Z,14.35
